sensor_id;sensor_type;location;lat;lon;timestamp;pressure;altitude;pressure_sealevel;temperature;humidity
33286;BME280;19656;50.096;20.014;2023-06-22T00:01:43;99169.90;;;24.06;64.32
33286;BME280;19656;50.096;20.014;2023-06-22T00:06:46;99169.00;;;23.99;64.67
33286;BME280;19656;50.096;20.014;2023-06-22T00:11:50;99173.26;;;23.90;64.88
33286;BME280;19656;50.096;20.014;2023-06-22T00:16:53;99172.19;;;23.79;65.14
33286;BME280;19656;50.096;20.014;2023-06-22T00:22:00;99163.35;;;23.72;65.55
33286;BME280;19656;50.096;20.014;2023-06-22T00:27:05;99157.63;;;23.73;65.65
33286;BME280;19656;50.096;20.014;2023-06-22T00:32:08;99151.85;;;23.74;65.59
33286;BME280;19656;50.096;20.014;2023-06-22T00:37:12;99144.08;;;23.74;65.60
33286;BME280;19656;50.096;20.014;2023-06-22T00:42:16;99141.98;;;23.68;65.73
33286;BME280;19656;50.096;20.014;2023-06-22T00:47:19;99141.23;;;23.61;65.97
33286;BME280;19656;50.096;20.014;2023-06-22T00:52:23;99135.45;;;23.56;65.97
33286;BME280;19656;50.096;20.014;2023-06-22T00:57:31;99139.52;;;23.51;65.96
33286;BME280;19656;50.096;20.014;2023-06-22T01:02:35;99138.09;;;23.44;66.03
33286;BME280;19656;50.096;20.014;2023-06-22T01:13:16;99124.19;;;23.45;66.04
33286;BME280;19656;50.096;20.014;2023-06-22T01:18:21;99124.47;;;23.48;66.19
33286;BME280;19656;50.096;20.014;2023-06-22T01:24:01;99133.31;;;23.46;65.86
33286;BME280;19656;50.096;20.014;2023-06-22T01:29:11;99129.16;;;23.45;65.92
33286;BME280;19656;50.096;20.014;2023-06-22T01:34:17;99132.33;;;23.43;65.89
33286;BME280;19656;50.096;20.014;2023-06-22T01:39:21;99134.24;;;23.37;65.95
33286;BME280;19656;50.096;20.014;2023-06-22T01:44:27;99141.45;;;23.32;65.95
33286;BME280;19656;50.096;20.014;2023-06-22T01:49:31;99144.41;;;23.32;66.03
33286;BME280;19656;50.096;20.014;2023-06-22T01:54:38;99149.52;;;23.37;65.72
33286;BME280;19656;50.096;20.014;2023-06-22T02:00:04;99152.03;;;23.41;65.64
33286;BME280;19656;50.096;20.014;2023-06-22T02:05:17;99148.44;;;23.33;65.56
33286;BME280;19656;50.096;20.014;2023-06-22T02:10:23;99148.39;;;23.27;65.60
33286;BME280;19656;50.096;20.014;2023-06-22T02:15:27;99149.08;;;23.22;65.69
33286;BME280;19656;50.096;20.014;2023-06-22T02:20:36;99146.33;;;23.16;65.74
33286;BME280;19656;50.096;20.014;2023-06-22T02:25:39;99149.89;;;23.09;65.90
33286;BME280;19656;50.096;20.014;2023-06-22T02:30:42;99158.77;;;23.09;65.86
33286;BME280;19656;50.096;20.014;2023-06-22T02:35:46;99163.39;;;23.13;65.81
33286;BME280;19656;50.096;20.014;2023-06-22T02:40:51;99173.31;;;23.10;65.89
33286;BME280;19656;50.096;20.014;2023-06-22T02:45:55;99176.91;;;23.05;66.01
33286;BME280;19656;50.096;20.014;2023-06-22T02:50:59;99175.33;;;22.97;66.16
33286;BME280;19656;50.096;20.014;2023-06-22T02:56:02;99171.81;;;22.87;66.45
33286;BME280;19656;50.096;20.014;2023-06-22T03:01:11;99173.07;;;22.82;66.72
33286;BME280;19656;50.096;20.014;2023-06-22T03:06:20;99178.73;;;22.77;66.93
33286;BME280;19656;50.096;20.014;2023-06-22T03:11:26;99181.82;;;22.72;67.19
33286;BME280;19656;50.096;20.014;2023-06-22T03:16:30;99178.33;;;22.66;67.45
33286;BME280;19656;50.096;20.014;2023-06-22T03:21:34;99176.02;;;22.67;67.47
33286;BME280;19656;50.096;20.014;2023-06-22T03:26:40;99189.58;;;22.62;67.42
33286;BME280;19656;50.096;20.014;2023-06-22T03:31:43;99196.87;;;22.59;67.57
33286;BME280;19656;50.096;20.014;2023-06-22T03:36:47;99207.21;;;22.50;67.63
33286;BME280;19656;50.096;20.014;2023-06-22T03:41:52;99199.50;;;22.44;67.94
33286;BME280;19656;50.096;20.014;2023-06-22T03:46:55;99202.30;;;22.43;67.96
33286;BME280;19656;50.096;20.014;2023-06-22T03:51:59;99200.98;;;22.42;68.14
33286;BME280;19656;50.096;20.014;2023-06-22T03:57:04;99206.48;;;22.45;68.09
33286;BME280;19656;50.096;20.014;2023-06-22T04:02:07;99217.17;;;22.47;68.01
33286;BME280;19656;50.096;20.014;2023-06-22T04:07:11;99221.90;;;22.45;67.97
33286;BME280;19656;50.096;20.014;2023-06-22T04:12:14;99234.65;;;22.40;68.08
33286;BME280;19656;50.096;20.014;2023-06-22T04:17:17;99232.27;;;22.38;68.05
33286;BME280;19656;50.096;20.014;2023-06-22T04:22:22;99229.09;;;22.43;68.01
33286;BME280;19656;50.096;20.014;2023-06-22T04:27:25;99230.77;;;22.51;67.56
33286;BME280;19656;50.096;20.014;2023-06-22T04:32:28;99237.59;;;22.55;67.28
33286;BME280;19656;50.096;20.014;2023-06-22T04:37:32;99235.59;;;22.58;67.16
33286;BME280;19656;50.096;20.014;2023-06-22T04:42:38;99240.92;;;22.64;67.04
33286;BME280;19656;50.096;20.014;2023-06-22T04:47:42;99248.88;;;22.56;67.10
33286;BME280;19656;50.096;20.014;2023-06-22T04:52:45;99251.25;;;22.51;67.39
33286;BME280;19656;50.096;20.014;2023-06-22T04:57:49;99257.97;;;22.52;67.55
33286;BME280;19656;50.096;20.014;2023-06-22T05:02:52;99257.55;;;22.63;67.65
33286;BME280;19656;50.096;20.014;2023-06-22T05:08:05;99244.02;;;22.86;67.45
33286;BME280;19656;50.096;20.014;2023-06-22T05:13:09;99240.81;;;23.08;66.88
33286;BME280;19656;50.096;20.014;2023-06-22T05:18:13;99253.36;;;23.19;66.62
33286;BME280;19656;50.096;20.014;2023-06-22T05:23:17;99265.92;;;23.25;66.42
33286;BME280;19656;50.096;20.014;2023-06-22T05:28:20;99267.17;;;23.30;66.28
33286;BME280;19656;50.096;20.014;2023-06-22T05:33:26;99263.90;;;23.42;66.24
33286;BME280;19656;50.096;20.014;2023-06-22T05:38:29;99271.70;;;23.54;66.03
33286;BME280;19656;50.096;20.014;2023-06-22T05:43:32;99272.55;;;23.68;65.75
33286;BME280;19656;50.096;20.014;2023-06-22T05:48:36;99273.10;;;23.81;65.43
33286;BME280;19656;50.096;20.014;2023-06-22T05:53:39;99273.17;;;23.90;65.40
33286;BME280;19656;50.096;20.014;2023-06-22T05:58:43;99275.02;;;23.96;65.44
33286;BME280;19656;50.096;20.014;2023-06-22T06:03:46;99285.35;;;24.02;65.42
33286;BME280;19656;50.096;20.014;2023-06-22T06:08:50;99283.88;;;24.07;65.35
33286;BME280;19656;50.096;20.014;2023-06-22T06:13:53;99287.79;;;24.07;65.75
33286;BME280;19656;50.096;20.014;2023-06-22T06:18:57;99297.54;;;24.16;65.75
33286;BME280;19656;50.096;20.014;2023-06-22T06:24:02;99298.89;;;24.34;65.92
33286;BME280;19656;50.096;20.014;2023-06-22T06:29:05;99293.89;;;24.49;65.79
33286;BME280;19656;50.096;20.014;2023-06-22T06:34:08;99298.48;;;24.61;65.54
33286;BME280;19656;50.096;20.014;2023-06-22T06:39:11;99300.70;;;24.67;65.56
33286;BME280;19656;50.096;20.014;2023-06-22T06:44:15;99306.38;;;24.69;65.37
33286;BME280;19656;50.096;20.014;2023-06-22T06:49:19;99305.75;;;24.73;65.83
33286;BME280;19656;50.096;20.014;2023-06-22T06:54:26;99302.64;;;24.81;65.72
33286;BME280;19656;50.096;20.014;2023-06-22T06:59:30;99301.30;;;24.93;65.51
33286;BME280;19656;50.096;20.014;2023-06-22T07:04:33;99303.62;;;25.02;65.17
33286;BME280;19656;50.096;20.014;2023-06-22T07:09:37;99302.85;;;25.12;65.43
33286;BME280;19656;50.096;20.014;2023-06-22T07:14:40;99294.79;;;25.16;65.27
33286;BME280;19656;50.096;20.014;2023-06-22T07:19:43;99299.27;;;25.18;65.22
33286;BME280;19656;50.096;20.014;2023-06-22T07:24:46;99293.59;;;25.20;65.09
33286;BME280;19656;50.096;20.014;2023-06-22T07:29:49;99290.75;;;25.22;65.24
33286;BME280;19656;50.096;20.014;2023-06-22T07:34:52;99289.50;;;25.30;65.00
33286;BME280;19656;50.096;20.014;2023-06-22T07:39:56;99284.89;;;25.29;64.47
33286;BME280;19656;50.096;20.014;2023-06-22T07:45:03;99280.42;;;25.28;64.64
33286;BME280;19656;50.096;20.014;2023-06-22T07:50:06;99278.14;;;25.20;63.90
33286;BME280;19656;50.096;20.014;2023-06-22T07:55:10;99272.65;;;25.13;64.52
33286;BME280;19656;50.096;20.014;2023-06-22T08:00:13;99282.71;;;25.19;64.40
33286;BME280;19656;50.096;20.014;2023-06-22T08:05:18;99292.39;;;25.22;64.12
33286;BME280;19656;50.096;20.014;2023-06-22T08:10:24;99295.79;;;25.32;64.37
33286;BME280;19656;50.096;20.014;2023-06-22T08:15:28;99299.34;;;25.46;64.32
33286;BME280;19656;50.096;20.014;2023-06-22T08:20:32;99309.06;;;25.52;63.70
33286;BME280;19656;50.096;20.014;2023-06-22T08:25:36;99313.70;;;25.55;63.61
33286;BME280;19656;50.096;20.014;2023-06-22T08:30:39;99310.82;;;25.72;63.08
33286;BME280;19656;50.096;20.014;2023-06-22T08:35:43;99310.98;;;25.71;62.92
33286;BME280;19656;50.096;20.014;2023-06-22T08:40:47;99310.39;;;25.81;62.65
33286;BME280;19656;50.096;20.014;2023-06-22T08:45:50;99314.47;;;25.92;62.13
33286;BME280;19656;50.096;20.014;2023-06-22T08:50:53;99315.08;;;26.00;61.07
33286;BME280;19656;50.096;20.014;2023-06-22T08:55:58;99315.17;;;26.09;61.14
33286;BME280;19656;50.096;20.014;2023-06-22T09:01:02;99321.89;;;26.18;60.73
33286;BME280;19656;50.096;20.014;2023-06-22T09:06:05;99314.95;;;26.26;60.07
33286;BME280;19656;50.096;20.014;2023-06-22T09:11:09;99317.27;;;26.36;60.11
33286;BME280;19656;50.096;20.014;2023-06-22T09:16:12;99314.85;;;26.44;58.69
33286;BME280;19656;50.096;20.014;2023-06-22T09:21:17;99312.08;;;26.52;58.25
33286;BME280;19656;50.096;20.014;2023-06-22T09:26:21;99310.84;;;26.54;57.86
33286;BME280;19656;50.096;20.014;2023-06-22T09:31:25;99309.56;;;26.66;57.91
33286;BME280;19656;50.096;20.014;2023-06-22T09:36:29;99313.25;;;26.73;57.82
33286;BME280;19656;50.096;20.014;2023-06-22T09:41:33;99313.77;;;26.82;57.72
33286;BME280;19656;50.096;20.014;2023-06-22T09:46:37;99311.14;;;26.94;56.85
33286;BME280;19656;50.096;20.014;2023-06-22T09:51:49;99308.94;;;27.05;57.16
33286;BME280;19656;50.096;20.014;2023-06-22T09:56:53;99301.64;;;27.17;56.95
33286;BME280;19656;50.096;20.014;2023-06-22T10:01:57;99307.24;;;27.04;56.16
33286;BME280;19656;50.096;20.014;2023-06-22T10:07:01;99304.02;;;26.86;56.29
33286;BME280;19656;50.096;20.014;2023-06-22T10:12:05;99306.37;;;26.74;56.03
33286;BME280;19656;50.096;20.014;2023-06-22T10:17:08;99309.11;;;26.90;56.21
33286;BME280;19656;50.096;20.014;2023-06-22T10:22:11;99301.35;;;26.95;55.82
33286;BME280;19656;50.096;20.014;2023-06-22T10:27:15;99297.77;;;27.02;55.98
33286;BME280;19656;50.096;20.014;2023-06-22T10:32:18;99294.73;;;27.40;55.97
33286;BME280;19656;50.096;20.014;2023-06-22T10:37:22;99296.27;;;27.65;54.83
33286;BME280;19656;50.096;20.014;2023-06-22T10:42:25;99292.84;;;27.66;54.36
33286;BME280;19656;50.096;20.014;2023-06-22T10:47:28;99275.89;;;27.94;53.72
33286;BME280;19656;50.096;20.014;2023-06-22T10:52:31;99269.41;;;28.02;53.35
33286;BME280;19656;50.096;20.014;2023-06-22T10:57:36;99264.73;;;28.11;52.93
33286;BME280;19656;50.096;20.014;2023-06-22T11:02:40;99258.52;;;28.14;52.75
33286;BME280;19656;50.096;20.014;2023-06-22T11:07:44;99247.95;;;28.33;52.47
33286;BME280;19656;50.096;20.014;2023-06-22T11:12:49;99240.76;;;28.26;51.61
33286;BME280;19656;50.096;20.014;2023-06-22T11:17:52;99246.45;;;28.07;51.61
33286;BME280;19656;50.096;20.014;2023-06-22T11:22:55;99241.58;;;28.19;51.98
33286;BME280;19656;50.096;20.014;2023-06-22T11:27:58;99238.38;;;28.36;51.39
33286;BME280;19656;50.096;20.014;2023-06-22T11:33:02;99239.80;;;28.38;51.59
33286;BME280;19656;50.096;20.014;2023-06-22T11:38:05;99234.15;;;28.57;50.90
33286;BME280;19656;50.096;20.014;2023-06-22T11:43:09;99235.77;;;28.65;50.73
33286;BME280;19656;50.096;20.014;2023-06-22T11:48:12;99219.77;;;28.89;50.02
33286;BME280;19656;50.096;20.014;2023-06-22T11:53:15;99225.68;;;28.98;49.40
33286;BME280;19656;50.096;20.014;2023-06-22T11:58:20;99222.08;;;29.23;49.23
33286;BME280;19656;50.096;20.014;2023-06-22T12:03:24;99218.52;;;29.46;48.53
33286;BME280;19656;50.096;20.014;2023-06-22T12:08:27;99209.45;;;29.63;48.15
33286;BME280;19656;50.096;20.014;2023-06-22T12:13:30;99206.25;;;29.77;47.64
33286;BME280;19656;50.096;20.014;2023-06-22T12:18:34;99205.23;;;29.93;47.43
33286;BME280;19656;50.096;20.014;2023-06-22T12:23:37;99209.50;;;30.12;46.69
33286;BME280;19656;50.096;20.014;2023-06-22T12:28:40;99203.91;;;30.22;46.17
33286;BME280;19656;50.096;20.014;2023-06-22T12:33:43;99206.23;;;30.35;45.98
33286;BME280;19656;50.096;20.014;2023-06-22T12:38:46;99201.96;;;30.48;45.84
33286;BME280;19656;50.096;20.014;2023-06-22T12:43:50;99192.10;;;30.58;45.59
33286;BME280;19656;50.096;20.014;2023-06-22T12:48:53;99190.45;;;30.72;45.08
33286;BME280;19656;50.096;20.014;2023-06-22T12:53:59;99184.00;;;30.77;45.02
33286;BME280;19656;50.096;20.014;2023-06-22T12:59:10;99173.02;;;30.99;44.62
33286;BME280;19656;50.096;20.014;2023-06-22T13:04:14;99160.35;;;31.15;44.27
33286;BME280;19656;50.096;20.014;2023-06-22T13:09:18;99153.79;;;31.36;43.62
33286;BME280;19656;50.096;20.014;2023-06-22T13:14:24;99152.79;;;31.48;42.97
33286;BME280;19656;50.096;20.014;2023-06-22T13:19:27;99143.33;;;31.57;43.17
33286;BME280;19656;50.096;20.014;2023-06-22T13:24:35;99144.41;;;31.70;42.82
33286;BME280;19656;50.096;20.014;2023-06-22T13:29:38;99142.11;;;31.78;42.65
33286;BME280;19656;50.096;20.014;2023-06-22T13:34:42;99141.85;;;31.91;42.29
33286;BME280;19656;50.096;20.014;2023-06-22T13:39:45;99135.45;;;32.05;42.22
33286;BME280;19656;50.096;20.014;2023-06-22T13:44:48;99140.73;;;32.21;41.37
33286;BME280;19656;50.096;20.014;2023-06-22T13:50:47;99136.30;;;32.28;41.13
33286;BME280;19656;50.096;20.014;2023-06-22T13:55:51;99137.64;;;32.33;40.89
33286;BME280;19656;50.096;20.014;2023-06-22T14:00:54;99129.77;;;32.39;40.91
33286;BME280;19656;50.096;20.014;2023-06-22T14:05:58;99127.20;;;32.19;40.34
33286;BME280;19656;50.096;20.014;2023-06-22T14:11:02;99126.92;;;32.02;40.97
33286;BME280;19656;50.096;20.014;2023-06-22T14:16:06;99129.25;;;31.91;40.95
33286;BME280;19656;50.096;20.014;2023-06-22T14:21:09;99131.42;;;31.57;40.80
33286;BME280;19656;50.096;20.014;2023-06-22T14:26:12;99132.96;;;31.30;41.85
33286;BME280;19656;50.096;20.014;2023-06-22T14:31:17;99129.93;;;31.19;42.44
33286;BME280;19656;50.096;20.014;2023-06-22T14:36:21;99128.09;;;31.14;42.65
33286;BME280;19656;50.096;20.014;2023-06-22T14:41:27;99126.55;;;31.07;42.65
33286;BME280;19656;50.096;20.014;2023-06-22T14:46:46;99127.45;;;30.66;42.89
33286;BME280;19656;50.096;20.014;2023-06-22T14:51:49;99127.20;;;30.29;43.22
33286;BME280;19656;50.096;20.014;2023-06-22T14:56:53;99124.55;;;30.07;43.84
33286;BME280;19656;50.096;20.014;2023-06-22T17:05:36;99088.16;;;28.36;47.93
33286;BME280;19656;50.096;20.014;2023-06-22T17:10:41;99087.08;;;28.38;48.07
33286;BME280;19656;50.096;20.014;2023-06-22T17:15:46;99085.09;;;28.38;48.30
33286;BME280;19656;50.096;20.014;2023-06-22T17:20:50;99077.80;;;28.36;48.51
33286;BME280;19656;50.096;20.014;2023-06-22T17:25:55;99072.91;;;28.34;48.25
33286;BME280;19656;50.096;20.014;2023-06-22T17:31:12;99074.17;;;28.34;48.42
33286;BME280;19656;50.096;20.014;2023-06-22T17:36:16;99073.04;;;28.32;48.48
33286;BME280;19656;50.096;20.014;2023-06-22T17:41:19;99068.68;;;28.28;48.61
33286;BME280;19656;50.096;20.014;2023-06-22T17:46:22;99066.13;;;28.22;48.69
33286;BME280;19656;50.096;20.014;2023-06-22T17:51:29;99069.90;;;28.16;48.86
33286;BME280;19656;50.096;20.014;2023-06-22T17:56:32;99065.73;;;28.11;48.80
33286;BME280;19656;50.096;20.014;2023-06-22T18:01:37;99060.19;;;28.00;48.70
33286;BME280;19656;50.096;20.014;2023-06-22T18:06:43;99056.42;;;27.92;49.12
33286;BME280;19656;50.096;20.014;2023-06-22T18:12:01;99052.70;;;27.84;49.30
33286;BME280;19656;50.096;20.014;2023-06-22T18:17:05;99049.90;;;27.73;49.68
33286;BME280;19656;50.096;20.014;2023-06-22T18:22:09;99048.10;;;27.63;50.22
33286;BME280;19656;50.096;20.014;2023-06-22T18:27:13;99040.35;;;27.51;50.37
33286;BME280;19656;50.096;20.014;2023-06-22T18:32:17;99042.03;;;27.41;50.73
33286;BME280;19656;50.096;20.014;2023-06-22T18:37:21;99037.63;;;27.36;51.18
33286;BME280;19656;50.096;20.014;2023-06-22T18:42:24;99042.92;;;27.26;51.31
33286;BME280;19656;50.096;20.014;2023-06-22T19:01:36;99048.81;;;26.78;52.49
33286;BME280;19656;50.096;20.014;2023-06-22T19:12:21;99075.59;;;26.44;52.73
33286;BME280;19656;50.096;20.014;2023-06-22T19:17:28;99074.39;;;26.33;52.75
33286;BME280;19656;50.096;20.014;2023-06-22T19:22:56;99076.86;;;26.23;53.05
33286;BME280;19656;50.096;20.014;2023-06-22T19:28:00;99077.77;;;26.17;53.15
33286;BME280;19656;50.096;20.014;2023-06-22T19:33:04;99079.30;;;26.12;53.51
33286;BME280;19656;50.096;20.014;2023-06-22T19:38:15;99080.81;;;26.07;53.88
33286;BME280;19656;50.096;20.014;2023-06-22T19:43:18;99074.94;;;26.00;54.40
33286;BME280;19656;50.096;20.014;2023-06-22T19:50:45;99067.04;;;25.95;54.46
33286;BME280;19656;50.096;20.014;2023-06-22T19:55:49;99063.13;;;25.87;55.01
33286;BME280;19656;50.096;20.014;2023-06-22T20:00:59;99063.08;;;25.77;55.28
33286;BME280;19656;50.096;20.014;2023-06-22T20:06:16;99066.05;;;25.69;55.66
33286;BME280;19656;50.096;20.014;2023-06-22T20:11:24;99058.41;;;25.62;56.03
33286;BME280;19656;50.096;20.014;2023-06-22T20:16:29;99057.81;;;25.58;56.18
33286;BME280;19656;50.096;20.014;2023-06-22T20:21:32;99053.50;;;25.52;56.47
33286;BME280;19656;50.096;20.014;2023-06-22T20:26:43;99060.08;;;25.44;56.63
33286;BME280;19656;50.096;20.014;2023-06-22T20:32:13;99058.66;;;25.38;57.02
33286;BME280;19656;50.096;20.014;2023-06-22T20:37:17;99061.79;;;25.34;57.53
33286;BME280;19656;50.096;20.014;2023-06-22T20:42:40;99059.92;;;25.25;57.77
33286;BME280;19656;50.096;20.014;2023-06-22T20:47:43;99047.75;;;25.18;57.87
33286;BME280;19656;50.096;20.014;2023-06-22T20:52:47;99030.48;;;25.12;58.32
33286;BME280;19656;50.096;20.014;2023-06-22T20:57:51;99022.09;;;25.06;58.72
33286;BME280;19656;50.096;20.014;2023-06-22T21:02:55;99014.97;;;25.01;58.78
33286;BME280;19656;50.096;20.014;2023-06-22T21:08:02;99008.62;;;24.96;58.98
33286;BME280;19656;50.096;20.014;2023-06-22T21:13:06;99010.50;;;24.90;59.10
33286;BME280;19656;50.096;20.014;2023-06-22T21:18:09;99004.19;;;24.82;59.29
33286;BME280;19656;50.096;20.014;2023-06-22T21:23:13;99000.73;;;24.74;59.45
33286;BME280;19656;50.096;20.014;2023-06-22T21:28:17;98994.17;;;24.67;59.90
33286;BME280;19656;50.096;20.014;2023-06-22T21:33:23;98997.43;;;24.59;59.94
33286;BME280;19656;50.096;20.014;2023-06-22T21:38:26;99002.40;;;24.49;60.30
33286;BME280;19656;50.096;20.014;2023-06-22T21:43:29;99005.66;;;24.41;60.64
33286;BME280;19656;50.096;20.014;2023-06-22T21:50:55;98999.95;;;24.39;61.06
33286;BME280;19656;50.096;20.014;2023-06-22T21:56:01;98997.61;;;24.35;61.11
33286;BME280;19656;50.096;20.014;2023-06-22T22:01:08;98996.23;;;24.32;61.34
33286;BME280;19656;50.096;20.014;2023-06-22T22:06:12;98990.21;;;24.27;61.52
33286;BME280;19656;50.096;20.014;2023-06-22T22:11:22;98981.49;;;24.21;61.60
33286;BME280;19656;50.096;20.014;2023-06-22T22:16:26;98975.35;;;24.11;61.93
33286;BME280;19656;50.096;20.014;2023-06-22T22:21:29;98959.92;;;24.02;62.29
33286;BME280;19656;50.096;20.014;2023-06-22T22:26:33;98945.67;;;23.96;62.41
33286;BME280;19656;50.096;20.014;2023-06-22T22:31:40;98941.17;;;23.90;62.47
33286;BME280;19656;50.096;20.014;2023-06-22T22:36:43;98935.77;;;23.88;62.46
33286;BME280;19656;50.096;20.014;2023-06-22T22:41:47;98927.89;;;23.90;62.34
33286;BME280;19656;50.096;20.014;2023-06-22T22:50:45;98920.81;;;23.95;62.04
33286;BME280;19656;50.096;20.014;2023-06-22T22:55:51;98909.64;;;23.91;61.88
33286;BME280;19656;50.096;20.014;2023-06-22T23:00:55;98894.95;;;23.88;61.98
33286;BME280;19656;50.096;20.014;2023-06-22T23:06:00;98886.70;;;23.82;62.08
33286;BME280;19656;50.096;20.014;2023-06-22T23:11:03;98887.30;;;23.78;61.93
33286;BME280;19656;50.096;20.014;2023-06-22T23:16:06;98886.23;;;23.72;61.96
33286;BME280;19656;50.096;20.014;2023-06-22T23:21:09;98879.05;;;23.68;62.02
33286;BME280;19656;50.096;20.014;2023-06-22T23:26:13;98872.89;;;23.63;62.01
33286;BME280;19656;50.096;20.014;2023-06-22T23:31:17;98864.45;;;23.59;61.89
33286;BME280;19656;50.096;20.014;2023-06-22T23:36:21;98857.08;;;23.60;61.99
33286;BME280;19656;50.096;20.014;2023-06-22T23:41:25;98854.96;;;23.61;61.96
33286;BME280;19656;50.096;20.014;2023-06-22T23:46:28;98848.20;;;23.62;61.81
33286;BME280;19656;50.096;20.014;2023-06-22T23:51:37;98849.30;;;23.60;61.64
33286;BME280;19656;50.096;20.014;2023-06-22T23:56:45;98851.23;;;23.55;61.87
